Time;durP1;ratioP1;P1;durP2;ratioP2;P2;SDS_P1;SDS_P2;PMS_P1;PMS_P2;Temp;Humidity;BMP_temperature;BMP_pressure;BME280_temperature;BME280_humidity;BME280_pressure;Samples;Min_cycle;Max_cycle;Signal;HPM_P1;HPM_P2
2021/06/16 00:02:23;216522.00;0.72;374.36;0.00;0.00;0.62;;;;;23.20;1.00;;;;;;2555414;56;1137;-82
2021/06/16 00:04:50;92054.00;0.31;159.85;0.00;0.00;0.62;;;;;23.30;1.00;;;;;;2555236;56;1175;-83
2021/06/16 00:07:17;61730.00;0.21;107.47;0.00;0.00;0.62;;;;;23.50;1.00;;;;;;2555396;56;1172;-82
2021/06/16 00:09:45;156783.00;0.52;271.50;0.00;0.00;0.62;;;;;23.50;1.00;;;;;;2555453;56;2072;-82
2021/06/16 00:12:12;108860.00;0.36;188.86;0.00;0.00;0.62;;;;;23.40;1.00;;;;;;2555733;56;1977;-82
2021/06/16 00:14:39;99696.00;0.33;173.05;0.00;0.00;0.62;;;;;23.30;1.00;;;;;;2555536;56;1220;-82
2021/06/16 00:17:08;269543.00;0.90;465.56;22437.00;0.07;39.49;;;;;23.30;1.00;;;;;;2555908;56;1121;-83
2021/06/16 00:19:36;114699.00;0.38;198.94;0.00;0.00;0.62;;;;;23.30;1.00;;;;;;2555755;56;1343;-83
2021/06/16 00:22:03;107047.00;0.36;185.73;0.00;0.00;0.62;;;;;23.30;1.00;;;;;;2556416;56;1066;-83
2021/06/16 00:24:30;275077.00;0.92;475.07;70689.00;0.24;122.95;;;;;23.20;1.00;;;;;;2556356;56;1106;-83
2021/06/16 00:26:57;114692.00;0.38;198.93;0.00;0.00;0.62;;;;;23.20;1.00;;;;;;2555929;56;1224;-82
2021/06/16 00:29:24;80375.00;0.27;139.69;0.00;0.00;0.62;;;;;23.10;1.00;;;;;;2558141;56;1258;-82
2021/06/16 00:31:51;90409.00;0.30;157.01;0.00;0.00;0.62;;;;;23.00;1.00;;;;;;2558989;56;1955;-82
2021/06/16 00:34:19;288843.00;0.96;498.74;51497.00;0.17;89.78;;;;;22.80;1.00;;;;;;2559517;56;1134;-82
2021/06/16 00:36:46;116925.00;0.39;202.78;0.00;0.00;0.62;;;;;23.00;1.00;;;;;;2559158;56;1045;-82
2021/06/16 00:39:13;94508.00;0.32;164.09;0.00;0.00;0.62;;;;;23.00;1.00;;;;;;2559569;56;1261;-82
2021/06/16 00:41:40;118285.00;0.39;205.12;0.00;0.00;0.62;;;;;22.90;1.00;;;;;;2559408;56;1149;-83
2021/06/16 00:44:08;177619.00;0.59;307.39;0.00;0.00;0.62;;;;;22.80;1.00;;;;;;2558554;56;1691;-83
2021/06/16 00:46:35;168826.00;0.56;292.24;0.00;0.00;0.62;;;;;22.60;1.00;;;;;;2556750;56;2022;-82
2021/06/16 00:49:03;118199.00;0.39;204.98;0.00;0.00;0.62;;;;;22.70;1.00;;;;;;2556721;56;1229;-83
2021/06/16 00:51:31;106989.00;0.36;185.63;0.00;0.00;0.62;;;;;22.70;1.00;;;;;;2556116;56;1926;-82
2021/06/16 00:53:58;200936.00;0.67;347.53;0.00;0.00;0.62;;;;;22.50;1.00;;;;;;2558370;56;1061;-83
2021/06/16 00:56:25;96473.00;0.32;167.48;0.00;0.00;0.62;;;;;22.50;1.00;;;;;;2558480;56;1125;-82
2021/06/16 00:58:52;8046.00;0.03;14.56;0.00;0.00;0.62;;;;;22.60;1.00;;;;;;2557699;56;1319;-84
2021/06/16 01:01:23;29647.00;0.10;51.97;0.00;0.00;0.62;;;;;22.50;1.00;;;;;;2558655;56;1103;-83
2021/06/16 01:03:58;24224.00;0.08;42.58;0.00;0.00;0.62;;;;;22.30;1.00;;;;;;2559816;56;1085;-82
2021/06/16 01:06:34;252460.00;0.84;436.18;31918.00;0.11;55.90;;;;;22.30;1.00;;;;;;2560473;56;1048;-83
2021/06/16 01:09:06;14359.00;0.05;25.50;0.00;0.00;0.62;;;;;22.30;1.00;;;;;;2559296;56;1385;-83
2021/06/16 01:11:42;58226.00;0.19;101.41;0.00;0.00;0.62;;;;;22.40;1.00;;;;;;2558262;56;1968;-83
2021/06/16 01:14:13;62995.00;0.21;109.65;0.00;0.00;0.62;;;;;22.50;1.00;;;;;;2557535;56;1142;-83
2021/06/16 01:16:45;133454.00;0.44;231.29;43285.00;0.14;75.57;;;;;22.40;1.00;;;;;;2559634;56;1105;-83
2021/06/16 01:19:23;494671.00;1.65;852.65;176026.00;0.59;304.65;;;;;22.40;1.00;;;;;;2558024;56;1461;-83
2021/06/16 01:22:01;171.00;0.00;0.92;0.00;0.00;0.62;;;;;22.40;1.00;;;;;;2557865;56;1125;-83
2021/06/16 01:24:31;5353.00;0.02;9.90;0.00;0.00;0.62;;;;;22.40;1.00;;;;;;2560325;56;1090;-81
2021/06/16 01:27:01;142643.00;0.48;247.13;0.00;0.00;0.62;;;;;22.10;1.00;;;;;;2557640;56;1097;-82
2021/06/16 01:29:33;102769.00;0.34;178.35;26991.00;0.09;47.37;;;;;21.90;1.00;;;;;;2561857;56;1362;-82
2021/06/16 01:32:02;250559.00;0.84;432.91;0.00;0.00;0.62;;;;;22.10;1.00;;;;;;2563164;56;1926;-82
2021/06/16 01:34:29;139165.00;0.46;241.13;0.00;0.00;0.62;;;;;22.10;1.00;;;;;;2562538;56;1234;-82
2021/06/16 01:37:00;125750.00;0.42;218.00;54198.00;0.18;94.45;;;;;22.10;1.00;;;;;;2563469;56;1090;-82
2021/06/16 01:39:30;233790.00;0.78;404.07;0.00;0.00;0.62;;;;;22.20;1.00;;;;;;2564297;56;1447;-82
2021/06/16 01:42:02;291927.00;0.97;504.04;65344.00;0.22;113.71;;;;;22.10;1.00;;;;;;2565109;56;1229;-82
2021/06/16 01:44:29;263754.00;0.88;455.60;89811.00;0.30;155.98;;;;;22.10;1.00;;;;;;2564276;56;1230;-83
2021/06/16 01:46:56;188752.00;0.63;326.56;0.00;0.00;0.62;;;;;22.00;1.00;;;;;;2561212;56;1164;-82
2021/06/16 01:49:27;0.00;0.00;0.62;0.00;0.00;0.62;;;;;22.20;1.00;;;;;;2560861;56;1311;-83
2021/06/16 01:51:55;25657.00;0.09;45.07;0.00;0.00;0.62;;;;;22.00;1.00;;;;;;2564938;56;1897;-84
2021/06/16 01:54:24;17619.00;0.06;31.15;0.00;0.00;0.62;;;;;22.10;1.00;;;;;;2564614;56;1224;-83
2021/06/16 01:56:52;55652.00;0.19;96.96;0.00;0.00;0.62;;;;;22.20;1.00;;;;;;2565084;56;1101;-83
2021/06/16 01:59:22;49502.00;0.17;86.32;0.00;0.00;0.62;;;;;22.20;1.00;;;;;;2561254;56;1342;-82
2021/06/16 02:01:50;113396.00;0.38;196.69;42165.00;0.14;73.63;;;;;22.00;1.00;;;;;;2564852;56;1184;-83
2021/06/16 02:04:18;5700.00;0.02;10.50;0.00;0.00;0.62;;;;;22.00;1.00;;;;;;2564795;56;1115;-82
2021/06/16 02:06:49;175281.00;0.58;303.36;0.00;0.00;0.62;;;;;21.60;1.00;;;;;;2557304;56;1129;-82
2021/06/16 02:09:19;43983.00;0.15;76.78;0.00;0.00;0.62;;;;;21.60;1.00;;;;;;2554968;56;1418;-82
2021/06/16 02:11:46;213184.00;0.71;368.61;55163.00;0.18;96.11;;;;;21.70;1.00;;;;;;2557494;56;1983;-82
2021/06/16 02:14:17;181463.00;0.60;314.01;0.00;0.00;0.62;;;;;21.70;1.00;;;;;;2555368;56;1132;-83
2021/06/16 02:16:52;105655.00;0.35;183.33;21772.00;0.07;38.34;;;;;21.90;1.00;;;;;;2555104;56;1166;-83
2021/06/16 02:19:21;55802.00;0.19;97.22;0.00;0.00;0.62;;;;;21.80;1.00;;;;;;2554988;56;1352;-83
2021/06/16 02:21:49;21204.00;0.07;37.36;0.00;0.00;0.62;;;;;21.60;1.00;;;;;;2555223;56;1155;-82
2021/06/16 02:24:16;318483.00;1.06;549.69;127977.00;0.43;221.84;;;;;21.70;1.00;;;;;;2555284;56;1098;-83
2021/06/16 02:26:43;176193.00;0.59;304.93;0.00;0.00;0.62;;;;;21.70;1.00;;;;;;2555652;56;1229;-83
2021/06/16 02:29:11;53122.00;0.18;92.59;0.00;0.00;0.62;;;;;21.70;1.00;;;;;;2554881;56;1353;-82
2021/06/16 02:31:40;71096.00;0.24;123.65;0.00;0.00;0.62;;;;;22.00;1.00;;;;;;2556895;56;1975;-83
2021/06/16 02:34:08;165721.00;0.55;286.90;0.00;0.00;0.62;;;;;21.80;1.00;;;;;;2555226;56;1173;-82
2021/06/16 02:36:39;188871.00;0.63;326.76;0.00;0.00;0.62;;;;;21.70;1.00;;;;;;2555869;56;1182;-83
2021/06/16 02:39:11;48701.00;0.16;84.94;0.00;0.00;0.62;;;;;21.80;1.00;;;;;;2561990;56;1435;-82
2021/06/16 02:41:39;358707.00;1.20;618.83;146804.00;0.49;254.30;;;;;22.10;1.00;;;;;;2565099;56;1187;-83
2021/06/16 02:44:07;35600.00;0.12;62.27;0.00;0.00;0.62;;;;;22.40;1.00;;;;;;2567541;56;1477;-83
2021/06/16 02:46:36;197430.00;0.66;341.50;0.00;0.00;0.62;;;;;22.30;1.00;;;;;;2565217;56;1136;-83
2021/06/16 02:49:07;83457.00;0.28;145.01;0.00;0.00;0.62;;;;;22.20;1.00;;;;;;2563030;56;1284;-83
2021/06/16 02:51:38;83580.00;0.28;145.22;13501.00;0.05;24.01;;;;;21.90;1.00;;;;;;2556326;56;1937;-83
2021/06/16 02:54:09;0.00;0.00;0.62;0.00;0.00;0.62;;;;;22.00;1.00;;;;;;2557062;56;1224;-82
2021/06/16 02:56:39;4731.00;0.02;8.82;0.00;0.00;0.62;;;;;21.90;1.00;;;;;;2556195;56;1161;-83
2021/06/16 02:59:10;57228.00;0.19;99.68;0.00;0.00;0.62;;;;;21.80;1.00;;;;;;2556275;56;1332;-82
2021/06/16 03:01:37;4416.00;0.01;8.27;0.00;0.00;0.62;;;;;21.50;1.00;;;;;;2558711;56;1815;-83
2021/06/16 03:04:06;85963.00;0.29;149.34;16359.00;0.05;28.96;;;;;21.60;1.00;;;;;;2556176;56;1167;-83
2021/06/16 03:06:35;0.00;0.00;0.62;0.00;0.00;0.62;;;;;21.50;1.00;;;;;;2556289;56;1113;-84
2021/06/16 03:09:03;23092.00;0.08;40.62;0.00;0.00;0.62;;;;;21.90;1.00;;;;;;2556680;56;1328;-82
2021/06/16 03:11:33;0.00;0.00;0.62;0.00;0.00;0.62;;;;;22.10;1.00;;;;;;2556400;56;1981;-83
2021/06/16 03:14:02;13679.00;0.05;24.32;0.00;0.00;0.62;;;;;21.80;1.00;;;;;;2556198;56;1127;-83
2021/06/16 03:16:30;20782.00;0.07;36.62;0.00;0.00;0.62;;;;;21.60;1.00;;;;;;2556787;56;1098;-83
2021/06/16 03:18:59;105803.00;0.35;183.59;39255.00;0.13;68.60;;;;;21.50;1.00;;;;;;2558583;56;1339;-82
2021/06/16 03:21:27;47836.00;0.16;83.44;0.00;0.00;0.62;;;;;21.50;1.00;;;;;;2556541;56;1035;-83
2021/06/16 03:23:56;0.00;0.00;0.62;0.00;0.00;0.62;;;;;21.50;1.00;;;;;;2558410;56;1661;-83
2021/06/16 03:26:27;0.00;0.00;0.62;0.00;0.00;0.62;;;;;21.40;1.00;;;;;;2555888;56;1066;-83
2021/06/16 03:28:55;0.00;0.00;0.62;0.00;0.00;0.62;;;;;21.20;1.00;;;;;;2556397;56;1363;-82
2021/06/16 03:31:22;86395.00;0.29;150.08;19978.00;0.07;35.23;;;;;20.90;1.00;;;;;;2556192;56;1094;-81
2021/06/16 03:33:50;29641.00;0.10;51.96;0.00;0.00;0.62;;;;;21.00;1.00;;;;;;2556206;56;1993;-82
2021/06/16 03:36:20;72585.00;0.24;126.23;0.00;0.00;0.62;;;;;21.00;1.00;;;;;;2556289;56;1131;-81
2021/06/16 03:38:49;247679.00;0.83;427.96;113084.00;0.38;196.15;;;;;21.10;1.00;;;;;;2555895;56;1293;-82
2021/06/16 03:41:18;0.00;0.00;0.62;0.00;0.00;0.62;;;;;21.30;1.00;;;;;;2556250;56;1079;-82
2021/06/16 03:43:48;416184.00;1.39;717.63;164103.00;0.55;284.11;;;;;21.20;1.00;;;;;;2555551;56;1180;-81
2021/06/16 03:46:17;5865.00;0.02;10.78;0.00;0.00;0.62;;;;;20.90;1.00;;;;;;2558028;56;1650;-81
2021/06/16 03:48:47;81615.00;0.27;141.83;0.00;0.00;0.62;;;;;20.70;1.00;;;;;;2555882;56;1299;-81
2021/06/16 03:51:15;0.00;0.00;0.62;0.00;0.00;0.62;;;;;20.90;1.00;;;;;;2555692;56;1154;-81
2021/06/16 03:53:44;0.00;0.00;0.62;0.00;0.00;0.62;;;;;21.10;1.00;;;;;;2556016;56;1988;-83
2021/06/16 03:56:11;54504.00;0.18;94.97;0.00;0.00;0.62;;;;;21.20;1.00;;;;;;2558484;56;1075;-80
2021/06/16 03:58:41;0.00;0.00;0.62;0.00;0.00;0.62;;;;;21.20;1.00;;;;;;2560320;56;1315;-80
2021/06/16 04:01:12;0.00;0.00;0.62;0.00;0.00;0.62;;;;;21.20;1.00;;;;;;2559715;56;1204;-81
2021/06/16 04:03:40;140507.00;0.47;243.44;0.00;0.00;0.62;;;;;21.20;1.00;;;;;;2561422;56;1125;-81
2021/06/16 04:06:08;0.00;0.00;0.62;0.00;0.00;0.62;;;;;21.60;1.00;;;;;;2560077;56;1181;-81
2021/06/16 04:08:37;163680.00;0.55;283.38;29692.00;0.10;52.05;;;;;21.60;1.00;;;;;;2560364;56;1354;-82
2021/06/16 04:11:04;0.00;0.00;0.62;0.00;0.00;0.62;;;;;22.10;1.00;;;;;;2558427;56;1140;-82
2021/06/16 04:13:31;0.00;0.00;0.62;0.00;0.00;0.62;;;;;22.40;1.00;;;;;;2558026;56;1988;-82
2021/06/16 04:16:01;18531.00;0.06;32.73;0.00;0.00;0.62;;;;;22.80;1.00;;;;;;2557542;56;1144;-83
2021/06/16 04:18:30;102999.00;0.34;178.75;0.00;0.00;0.62;;;;;23.00;1.00;;;;;;2559928;56;1537;-82
2021/06/16 04:20:57;30271.00;0.10;53.05;0.00;0.00;0.62;;;;;23.10;1.00;;;;;;2557504;56;1507;-82
2021/06/16 04:23:23;55186.00;0.18;96.15;0.00;0.00;0.62;;;;;23.20;1.00;;;;;;2557520;56;1081;-82
2021/06/16 04:25:50;0.00;0.00;0.62;0.00;0.00;0.62;;;;;23.10;1.00;;;;;;2557279;56;1113;-82
2021/06/16 04:28:17;18703.00;0.06;33.02;0.00;0.00;0.62;;;;;22.80;1.00;;;;;;2557220;56;1265;-82
2021/06/16 04:30:45;44483.00;0.15;77.64;0.00;0.00;0.62;;;;;22.60;1.00;;;;;;2556705;56;1188;-82
2021/06/16 04:33:13;0.00;0.00;0.62;0.00;0.00;0.62;;;;;22.40;1.00;;;;;;2557807;56;2039;-84
2021/06/16 04:35:40;0.00;0.00;0.62;0.00;0.00;0.62;;;;;22.40;1.00;;;;;;2558995;56;1176;-83
2021/06/16 04:38:07;165292.00;0.55;286.16;34460.00;0.11;60.30;;;;;22.70;1.00;;;;;;2558995;56;1348;-83
2021/06/16 04:40:34;0.00;0.00;0.62;0.00;0.00;0.62;;;;;23.00;1.00;;;;;;2559385;56;1030;-83
2021/06/16 04:43:01;36113.00;0.12;63.16;0.00;0.00;0.62;;;;;23.10;1.00;;;;;;2556883;56;1067;-82
2021/06/16 04:45:28;0.00;0.00;0.62;0.00;0.00;0.62;;;;;23.10;1.00;;;;;;2556639;56;1094;-82
2021/06/16 04:47:55;0.00;0.00;0.62;0.00;0.00;0.62;;;;;23.00;1.00;;;;;;2557200;56;1242;-84
2021/06/16 04:50:23;127072.00;0.42;220.28;59568.00;0.20;103.73;;;;;22.50;1.00;;;;;;2558948;56;1414;-83
2021/06/16 04:52:52;0.00;0.00;0.62;0.00;0.00;0.62;;;;;22.50;1.00;;;;;;2557054;56;1948;-83
2021/06/16 04:55:19;474487.00;1.58;817.91;192289.00;0.64;332.65;;;;;22.50;1.00;;;;;;2559057;56;1192;-83
2021/06/16 04:57:46;111781.00;0.37;193.90;0.00;0.00;0.62;;;;;22.50;1.00;;;;;;2566869;56;1502;-82
2021/06/16 05:00:13;230998.00;0.77;399.27;98293.00;0.33;170.63;;;;;22.10;1.00;;;;;;2562044;56;1137;-83
2021/06/16 05:02:41;70126.00;0.23;121.98;0.00;0.00;0.62;;;;;22.10;1.00;;;;;;2557141;56;1221;-83
2021/06/16 05:05:10;0.00;0.00;0.62;0.00;0.00;0.62;;;;;22.40;1.00;;;;;;2557461;56;1236;-84
2021/06/16 05:07:38;172840.00;0.58;299.16;0.00;0.00;0.62;;;;;22.40;1.00;;;;;;2558784;56;1135;-83
2021/06/16 05:10:06;0.00;0.00;0.62;0.00;0.00;0.62;;;;;22.40;1.00;;;;;;2557921;56;1329;-83
2021/06/16 05:12:33;435214.00;1.45;750.35;56876.00;0.19;99.08;;;;;22.40;1.00;;;;;;2558689;56;1964;-83
2021/06/16 05:15:00;0.00;0.00;0.62;0.00;0.00;0.62;;;;;22.50;1.00;;;;;;2557263;56;1101;-83
2021/06/16 05:17:26;90221.00;0.30;156.69;0.00;0.00;0.62;;;;;23.10;1.00;;;;;;2557046;56;1217;-83
2021/06/16 05:19:57;44151.00;0.15;77.07;0.00;0.00;0.62;;;;;23.40;1.00;;;;;;2558933;56;1301;-81
2021/06/16 05:22:25;357357.00;1.19;616.51;33675.00;0.11;58.94;;;;;23.50;1.00;;;;;;2557059;56;1139;-83
2021/06/16 05:24:54;0.00;0.00;0.62;0.00;0.00;0.62;;;;;23.40;1.00;;;;;;2560823;56;1114;-82
2021/06/16 05:27:21;103771.00;0.35;180.08;0.00;0.00;0.62;;;;;23.30;1.00;;;;;;2562559;56;1045;-82
2021/06/16 05:29:51;261291.00;0.87;451.37;43370.00;0.14;75.72;;;;;23.40;1.00;;;;;;2559752;56;1621;-82
2021/06/16 05:32:17;0.00;0.00;0.62;0.00;0.00;0.62;;;;;23.70;1.00;;;;;;2558322;56;1992;-83
2021/06/16 05:34:44;33864.00;0.11;59.27;0.00;0.00;0.62;;;;;24.00;1.00;;;;;;2556066;56;1109;-83
2021/06/16 05:37:12;354601.00;1.18;611.77;99694.00;0.33;173.04;;;;;24.00;1.00;;;;;;2556680;56;1118;-83
2021/06/16 05:39:39;288130.00;0.96;497.51;73238.00;0.24;127.36;;;;;24.10;1.00;;;;;;2557962;56;1680;-81
2021/06/16 05:42:07;0.00;0.00;0.62;0.00;0.00;0.62;;;;;24.80;1.00;;;;;;2556891;56;1217;-81
2021/06/16 05:44:34;0.00;0.00;0.62;0.00;0.00;0.62;;;;;25.90;1.00;;;;;;2556431;56;1169;-82
2021/06/16 05:47:01;110718.00;0.37;192.07;40866.00;0.14;71.39;;;;;26.80;1.00;;;;;;2558646;56;1152;-82
2021/06/16 05:49:28;295988.00;0.99;511.02;76415.00;0.25;132.84;;;;;26.90;1.00;;;;;;2556453;56;1308;-83
2021/06/16 05:51:55;210249.00;0.70;363.56;45430.00;0.15;79.28;;;;;27.60;1.00;;;;;;2559321;56;1144;-83
2021/06/16 05:54:22;65122.00;0.22;113.33;0.00;0.00;0.62;;;;;28.00;1.00;;;;;;2559094;56;1911;-83
2021/06/16 05:56:49;34207.00;0.11;59.86;0.00;0.00;0.62;;;;;28.60;1.00;;;;;;2557076;56;1089;-83
2021/06/16 05:59:18;0.00;0.00;0.62;0.00;0.00;0.62;;;;;28.80;1.00;;;;;;2556643;56;1301;-83
2021/06/16 06:01:44;0.00;0.00;0.62;0.00;0.00;0.62;;;;;29.10;1.00;;;;;;2557008;56;1061;-84
2021/06/16 06:04:11;83537.00;0.28;145.15;0.00;0.00;0.62;;;;;29.90;1.00;;;;;;2557437;56;1076;-84
2021/06/16 06:06:39;77458.00;0.26;134.65;0.00;0.00;0.62;;;;;30.00;1.00;;;;;;2559338;56;1704;-83
2021/06/16 06:09:08;0.00;0.00;0.62;0.00;0.00;0.62;;;;;30.30;1.00;;;;;;2557363;56;1316;-83
2021/06/16 06:11:37;0.00;0.00;0.62;0.00;0.00;0.62;;;;;30.40;1.00;;;;;;2556272;56;1286;-83
2021/06/16 06:14:05;210320.00;0.70;363.69;28778.00;0.10;50.47;;;;;30.30;1.00;;;;;;2556704;56;1974;-83
2021/06/16 06:16:34;0.00;0.00;0.62;0.00;0.00;0.62;;;;;30.10;1.00;;;;;;2557442;56;1196;-84
2021/06/16 06:19:01;4275.00;0.01;8.03;0.00;0.00;0.62;;;;;30.20;1.00;;;;;;2557281;56;1356;-84
2021/06/16 06:21:30;0.00;0.00;0.62;0.00;0.00;0.62;;;;;30.60;1.00;;;;;;2556516;56;1212;-84
2021/06/16 06:23:57;56973.00;0.19;99.24;0.00;0.00;0.62;;;;;31.10;1.00;;;;;;2557730;56;1113;-86
2021/06/16 06:26:25;0.00;0.00;0.62;0.00;0.00;0.62;;;;;31.70;1.00;;;;;;2557714;56;1236;-86
2021/06/16 06:28:52;117205.00;0.39;203.26;0.00;0.00;0.62;;;;;31.90;1.00;;;;;;2558012;56;1287;-85
2021/06/16 06:31:19;50786.00;0.17;88.55;0.00;0.00;0.62;;;;;32.40;1.00;;;;;;2559031;56;1119;-85
2021/06/16 06:33:47;0.00;0.00;0.62;0.00;0.00;0.62;;;;;32.00;1.00;;;;;;2560600;56;1903;-85
2021/06/16 06:36:14;68486.00;0.23;119.14;0.00;0.00;0.62;;;;;32.40;1.00;;;;;;2566785;56;1179;-84
2021/06/16 06:38:41;179953.00;0.60;311.41;0.00;0.00;0.62;;;;;32.60;1.00;;;;;;2559846;56;1421;-83
2021/06/16 06:41:08;50892.00;0.17;88.73;0.00;0.00;0.62;;;;;33.80;1.00;;;;;;2561568;56;1125;-83
2021/06/16 06:43:35;0.00;0.00;0.62;0.00;0.00;0.62;;;;;34.70;1.00;;;;;;2559109;56;1123;-83
2021/06/16 06:46:02;0.00;0.00;0.62;0.00;0.00;0.62;;;;;34.80;1.00;;;;;;2561099;56;1631;-85
2021/06/16 06:48:29;0.00;0.00;0.62;0.00;0.00;0.62;;;;;33.80;1.00;;;;;;2561665;56;1529;-84
2021/06/16 06:50:57;227673.00;0.76;393.55;42440.00;0.14;74.11;;;;;33.10;1.00;;;;;;2562179;56;842;-84
2021/06/16 06:53:24;126181.00;0.42;218.74;61005.00;0.20;106.21;;;;;33.90;1.00;;;;;;2560273;56;1911;-85
2021/06/16 06:55:51;0.00;0.00;0.62;0.00;0.00;0.62;;;;;33.40;1.00;;;;;;2562445;56;1181;-84
2021/06/16 06:58:18;0.00;0.00;0.62;0.00;0.00;0.62;;;;;32.80;1.00;;;;;;2565560;56;1356;-84
2021/06/16 07:00:45;64257.00;0.21;111.84;0.00;0.00;0.62;;;;;32.80;1.00;;;;;;2565836;56;1082;-84
2021/06/16 07:03:12;53540.00;0.18;93.31;0.00;0.00;0.62;;;;;33.80;1.00;;;;;;2560668;56;1141;-84
2021/06/16 07:05:39;0.00;0.00;0.62;0.00;0.00;0.62;;;;;34.10;1.00;;;;;;2563357;56;1208;-85
2021/06/16 07:08:07;0.00;0.00;0.62;0.00;0.00;0.62;;;;;34.50;1.00;;;;;;2563853;56;1280;-85
2021/06/16 07:10:34;0.00;0.00;0.62;0.00;0.00;0.62;;;;;35.20;1.00;;;;;;2564854;56;1173;-85
2021/06/16 07:13:03;268750.00;0.90;464.19;55868.00;0.19;97.33;;;;;35.90;1.00;;;;;;2565278;56;1959;-85
2021/06/16 07:15:30;118713872.00;395.71;67771328.00;0.00;0.00;0.62;;;;;36.80;1.00;;;;;;2560904;56;1128;-84
2021/06/16 07:17:57;0.00;0.00;0.62;0.00;0.00;0.62;;;;;37.20;1.00;;;;;;2557752;56;1430;-85
2021/06/16 07:20:24;0.00;0.00;0.62;0.00;0.00;0.62;;;;;37.70;1.00;;;;;;2558153;56;1131;-87
2021/06/16 07:22:51;215523.00;0.72;372.64;67525.00;0.23;117.48;;;;;37.30;1.00;;;;;;2558502;56;1137;-85
2021/06/16 07:25:20;279889.00;0.93;483.35;104159.00;0.35;180.75;;;;;36.90;1.00;;;;;;2560341;56;1125;-85
2021/06/16 07:27:47;0.00;0.00;0.62;0.00;0.00;0.62;;;;;37.10;1.00;;;;;;2558507;56;1257;-85
2021/06/16 07:30:15;0.00;0.00;0.62;0.00;0.00;0.62;;;;;36.60;1.00;;;;;;2560201;56;1700;-85
2021/06/16 07:32:42;31842.00;0.11;55.77;0.00;0.00;0.62;;;;;35.80;1.00;;;;;;2560284;56;1223;-85
2021/06/16 07:35:12;36673.00;0.12;64.13;0.00;0.00;0.62;;;;;35.90;1.00;;;;;;2558579;56;2091;-86
2021/06/16 07:37:39;178932.00;0.60;309.65;67306.00;0.22;117.10;;;;;34.90;1.00;;;;;;2558310;56;1124;-85
2021/06/16 07:40:09;230943.00;0.77;399.17;93463.00;0.31;162.29;;;;;35.40;1.00;;;;;;2558556;56;1323;-85
2021/06/16 07:42:38;47506.00;0.16;82.87;0.00;0.00;0.62;;;;;36.10;1.00;;;;;;2558499;56;1138;-85
2021/06/16 07:45:05;72865.00;0.24;126.71;0.00;0.00;0.62;;;;;36.50;1.00;;;;;;2558605;56;1127;-85
2021/06/16 07:47:32;0.00;0.00;0.62;0.00;0.00;0.62;;;;;37.10;1.00;;;;;;2558181;56;1228;-85
2021/06/16 07:49:59;0.00;0.00;0.62;0.00;0.00;0.62;;;;;37.20;1.00;;;;;;2560871;56;1276;-84
2021/06/16 07:52:27;0.00;0.00;0.62;0.00;0.00;0.62;;;;;38.10;1.00;;;;;;2568397;56;1233;-84
2021/06/16 07:54:54;48713.00;0.16;84.96;0.00;0.00;0.62;;;;;38.10;1.00;;;;;;2564347;56;1966;-84
2021/06/16 07:57:21;0.00;0.00;0.62;0.00;0.00;0.62;;;;;37.10;1.00;;;;;;2557824;56;1201;-85
2021/06/16 07:59:50;0.00;0.00;0.62;0.00;0.00;0.62;;;;;37.00;1.00;;;;;;2558019;56;1267;-85
2021/06/16 08:02:18;17108.00;0.06;30.26;0.00;0.00;0.62;;;;;37.90;1.00;;;;;;2558475;56;1025;-85
2021/06/16 08:04:45;57919.00;0.19;100.88;0.00;0.00;0.62;;;;;37.60;1.00;;;;;;2560761;56;1168;-85
2021/06/16 08:07:11;0.00;0.00;0.62;0.00;0.00;0.62;;;;;37.20;1.00;;;;;;2558771;56;1100;-85
2021/06/16 08:09:40;10616.00;0.04;19.02;0.00;0.00;0.62;;;;;37.30;1.00;;;;;;2559830;56;1329;-86
2021/06/16 08:12:09;98896.00;0.33;171.67;28665.00;0.10;50.27;;;;;38.90;1.00;;;;;;2558561;56;1135;-85
2021/06/16 08:14:36;0.00;0.00;0.62;0.00;0.00;0.62;;;;;37.10;1.00;;;;;;2560224;56;1949;-85
2021/06/16 08:17:05;0.00;0.00;0.62;0.00;0.00;0.62;;;;;36.80;1.00;;;;;;2558518;56;1157;-86
2021/06/16 08:19:32;178524.00;0.60;308.95;41101.00;0.14;71.79;;;;;37.50;1.00;;;;;;2557923;56;1323;-86
2021/06/16 08:22:00;0.00;0.00;0.62;0.00;0.00;0.62;;;;;37.70;1.00;;;;;;2558540;56;1068;-86
2021/06/16 08:24:27;0.00;0.00;0.62;0.00;0.00;0.62;;;;;38.60;1.00;;;;;;2558342;56;1103;-86
2021/06/16 08:26:54;0.00;0.00;0.62;0.00;0.00;0.62;;;;;38.40;1.00;;;;;;2557499;56;1197;-86
2021/06/16 08:29:22;0.00;0.00;0.62;0.00;0.00;0.62;;;;;38.80;1.00;;;;;;2558203;56;1347;-86
2021/06/16 08:31:49;0.00;0.00;0.62;0.00;0.00;0.62;;;;;38.50;1.00;;;;;;2557915;56;1220;-86
2021/06/16 08:34:17;0.00;0.00;0.62;0.00;0.00;0.62;;;;;38.50;1.00;;;;;;2558121;56;1971;-86
2021/06/16 08:36:45;0.00;0.00;0.62;0.00;0.00;0.62;;;;;38.40;1.00;;;;;;2558206;56;1066;-84
2021/06/16 08:39:12;268618.00;0.90;463.97;42688.00;0.14;74.54;;;;;38.00;1.00;;;;;;2557922;56;1350;-85
2021/06/16 08:41:40;0.00;0.00;0.62;0.00;0.00;0.62;;;;;37.70;1.00;;;;;;2559877;56;1132;-87
2021/06/16 08:44:08;0.00;0.00;0.62;0.00;0.00;0.62;;;;;38.00;1.00;;;;;;2556591;56;1054;-86
2021/06/16 08:46:36;0.00;0.00;0.62;0.00;0.00;0.62;;;;;38.50;1.00;;;;;;2557778;56;1124;-85
2021/06/16 08:49:04;128475.00;0.43;222.70;17432.00;0.06;30.82;;;;;38.20;1.00;;;;;;2562240;56;1265;-86
2021/06/16 08:51:34;306031.00;1.02;528.29;171120.00;0.57;296.20;;;;;37.50;1.00;;;;;;2563514;56;1082;-89
2021/06/16 08:54:01;254611.00;0.85;439.88;124293.00;0.41;215.49;;;;;37.80;1.00;;;;;;2563446;56;1960;-87
2021/06/16 08:56:28;20583.00;0.07;36.28;0.00;0.00;0.62;;;;;37.20;1.00;;;;;;2563774;56;1022;-86
2021/06/16 08:58:55;0.00;0.00;0.62;0.00;0.00;0.62;;;;;36.40;1.00;;;;;;2563245;56;1278;-87
2021/06/16 09:01:22;0.00;0.00;0.62;0.00;0.00;0.62;;;;;37.10;1.00;;;;;;2563640;56;1203;-87
2021/06/16 09:03:50;46262.00;0.15;80.72;0.00;0.00;0.62;;;;;37.40;1.00;;;;;;2565565;56;1168;-86
2021/06/16 09:06:17;48631.00;0.16;84.82;0.00;0.00;0.62;;;;;37.60;1.00;;;;;;2563195;56;1164;-86
2021/06/16 09:08:54;0.00;0.00;0.62;0.00;0.00;0.62;;;;;38.10;1.00;;;;;;2562814;56;1335;-86
2021/06/16 09:11:22;29591.00;0.10;51.88;0.00;0.00;0.62;;;;;38.10;1.00;;;;;;2563365;56;1151;-86
2021/06/16 09:13:49;259361.00;0.86;448.05;127488.00;0.42;221.00;;;;;37.70;1.00;;;;;;2562681;56;1956;-87
2021/06/16 09:16:27;0.00;0.00;0.62;0.00;0.00;0.62;;;;;37.30;1.00;;;;;;2567759;56;1136;-87
2021/06/16 09:18:55;194872.00;0.65;337.10;42917.00;0.14;74.93;;;;;37.50;1.00;;;;;;2565721;56;1332;-86
2021/06/16 09:21:36;49643.00;0.17;86.57;0.00;0.00;0.62;;;;;37.20;1.00;;;;;;2564299;56;1114;-87
2021/06/16 09:24:05;0.00;0.00;0.62;0.00;0.00;0.62;;;;;36.60;1.00;;;;;;2563013;56;1298;-87
2021/06/16 09:26:33;7125.00;0.02;12.97;0.00;0.00;0.62;;;;;36.30;1.00;;;;;;2563760;56;1177;-87
2021/06/16 09:29:01;154645.00;0.52;267.81;11914.00;0.04;21.27;;;;;36.40;1.00;;;;;;2564706;56;1280;-87
2021/06/16 09:31:36;0.00;0.00;0.62;0.00;0.00;0.62;;;;;35.90;1.00;;;;;;2564650;56;1106;-86
2021/06/16 09:34:08;162257.00;0.54;280.93;0.00;0.00;0.62;;;;;35.50;1.00;;;;;;2564121;56;1944;-86
2021/06/16 09:36:48;85267.00;0.28;148.13;0.00;0.00;0.62;;;;;35.20;1.00;;;;;;2566909;56;1144;-87
2021/06/16 09:39:24;0.00;0.00;0.62;0.00;0.00;0.62;;;;;35.00;1.00;;;;;;2564373;56;1442;-87
2021/06/16 09:42:00;0.00;0.00;0.62;0.00;0.00;0.62;;;;;34.90;1.00;;;;;;2563441;56;1117;-88
2021/06/16 09:44:45;41168.00;0.14;71.91;0.00;0.00;0.62;;;;;34.60;1.00;;;;;;2562987;56;1317;-88
2021/06/16 09:47:14;0.00;0.00;0.62;0.00;0.00;0.62;;;;;34.20;1.00;;;;;;2565090;56;1105;-88
2021/06/16 09:49:53;38749.00;0.13;67.72;0.00;0.00;0.62;;;;;34.30;1.00;;;;;;2562192;56;1421;-85
2021/06/16 09:52:38;0.00;0.00;0.62;0.00;0.00;0.62;;;;;34.60;1.00;;;;;;2561972;56;1138;-85
2021/06/16 09:55:23;0.00;0.00;0.62;0.00;0.00;0.62;;;;;34.70;1.00;;;;;;2561991;56;1902;-85
2021/06/16 09:58:01;0.00;0.00;0.62;0.00;0.00;0.62;;;;;34.50;1.00;;;;;;2562517;56;1319;-85
2021/06/16 10:00:30;62974.00;0.21;109.62;0.00;0.00;0.62;;;;;35.10;1.00;;;;;;2565826;56;1616;-87
2021/06/16 10:03:14;99132.00;0.33;172.07;0.00;0.00;0.62;;;;;35.30;1.00;;;;;;2564873;56;1138;-86
2021/06/16 10:06:04;0.00;0.00;0.62;0.00;0.00;0.62;;;;;35.00;1.00;;;;;;2564639;56;1082;-88
2021/06/16 10:08:31;325498.00;1.08;561.75;51236.00;0.17;89.32;;;;;34.60;1.00;;;;;;2564904;56;1326;-86
2021/06/16 10:11:00;0.00;0.00;0.62;0.00;0.00;0.62;;;;;34.50;1.00;;;;;;2564288;56;1078;-88
2021/06/16 10:13:27;68988.00;0.23;120.01;0.00;0.00;0.62;;;;;33.90;1.00;;;;;;2564259;56;1089;-88
2021/06/16 10:15:55;0.00;0.00;0.62;0.00;0.00;0.62;;;;;33.70;1.00;;;;;;2566338;56;1964;-88
2021/06/16 10:18:24;0.00;0.00;0.62;0.00;0.00;0.62;;;;;33.80;1.00;;;;;;2563799;56;1343;-86